Time;durP1;ratioP1;P1;durP2;ratioP2;P2;SDS_P1;SDS_P2;PMS_P1;PMS_P2;Temp;Humidity;BMP_temperature;BMP_pressure;BME280_temperature;BME280_humidity;BME280_pressure;Samples;Min_cycle;Max_cycle;Signal;HPM_P1;HPM_P2
2024/01/27 00:02:34;;;;;;;;;;;;;;;5.10;81.75;101224.86;105718;1293;59279;-53
2024/01/27 00:05:19;;;;;;;;;;;;;;;5.11;81.60;101227.60;105597;1295;59453;-54
2024/01/27 00:08:05;;;;;;;;;;;;;;;5.10;81.39;101225.71;105648;1293;74101;-55
2024/01/27 00:10:51;;;;;;;;;;;;;;;5.10;80.79;101227.92;105628;1293;67184;-55
2024/01/27 00:13:37;;;;;;;;;;;;;;;5.10;81.40;101231.86;105561;1293;74527;-55
2024/01/27 00:16:23;;;;;;;;;;;;;;;5.09;82.13;101230.48;105664;1297;59227;-55
2024/01/27 00:19:11;;;;;;;;;;;;;;;5.08;81.48;101239.69;105324;1299;382074;-54
2024/01/27 00:21:58;;;;;;;;;;;;;;;5.08;81.35;101241.92;105538;1294;74419;-59
2024/01/27 00:24:44;;;;;;;;;;;;;;;5.07;80.15;101242.76;105626;1297;68723;-55
2024/01/27 00:27:30;;;;;;;;;;;;;;;5.08;81.41;101243.29;105581;1293;70459;-54
2024/01/27 00:30:16;;;;;;;;;;;;;;;5.04;80.40;101243.55;105649;1296;59343;-56
2024/01/27 00:33:02;;;;;;;;;;;;;;;5.03;80.02;101253.77;105643;1293;58897;-55
2024/01/27 00:35:48;;;;;;;;;;;;;;;5.03;79.81;101248.67;105697;1294;74637;-55
2024/01/27 00:38:34;;;;;;;;;;;;;;;5.05;79.51;101254.67;105624;1297;68553;-55
2024/01/27 00:41:20;;;;;;;;;;;;;;;5.04;78.51;101253.64;105658;1293;72132;-55
2024/01/27 00:44:06;;;;;;;;;;;;;;;5.06;78.45;101255.38;105615;1298;59270;-55
2024/01/27 00:46:52;;;;;;;;;;;;;;;5.07;78.79;101255.23;105626;1294;59200;-53
2024/01/27 00:49:38;;;;;;;;;;;;;;;5.08;78.61;101250.80;105618;1293;73474;-55
2024/01/27 00:52:24;;;;;;;;;;;;;;;5.08;78.13;101248.41;105719;1292;67988;-55
2024/01/27 00:55:10;;;;;;;;;;;;;;;5.09;78.16;101253.02;105596;1293;72134;-56
2024/01/27 00:57:56;;;;;;;;;;;;;;;5.08;77.79;101257.98;105669;1296;59375;-56
2024/01/27 01:00:42;;;;;;;;;;;;;;;5.08;77.18;101250.11;105606;1297;59448;-56
2024/01/27 01:03:28;;;;;;;;;;;;;;;5.09;77.60;101255.08;105615;1296;73455;-55
2024/01/27 01:06:13;;;;;;;;;;;;;;;5.09;77.23;101254.23;105653;1294;68349;-55
2024/01/27 01:08:59;;;;;;;;;;;;;;;5.08;77.04;101252.34;105657;1294;71868;-54
2024/01/27 01:11:45;;;;;;;;;;;;;;;5.08;77.40;101257.80;105574;1295;59079;-55
2024/01/27 01:14:31;;;;;;;;;;;;;;;5.09;76.79;101260.55;105625;1297;58567;-55
2024/01/27 01:17:17;;;;;;;;;;;;;;;5.09;76.79;101261.58;105642;1294;74407;-55
2024/01/27 01:20:03;;;;;;;;;;;;;;;5.09;76.97;101270.30;105624;1298;68024;-55
2024/01/27 01:22:50;;;;;;;;;;;;;;;5.08;76.89;101269.60;105619;1294;72872;-55
2024/01/27 01:25:36;;;;;;;;;;;;;;;5.08;77.15;101270.27;105566;1296;58982;-54
2024/01/27 01:28:21;;;;;;;;;;;;;;;5.06;76.55;101267.84;105608;1293;58949;-55
2024/01/27 01:31:08;;;;;;;;;;;;;;;5.06;76.28;101273.48;105629;1293;74509;-55
2024/01/27 01:33:54;;;;;;;;;;;;;;;5.06;75.22;101274.86;105642;1294;66584;-55
2024/01/27 01:36:40;;;;;;;;;;;;;;;5.06;75.75;101276.57;105583;1294;73142;-55
2024/01/27 01:39:26;;;;;;;;;;;;;;;5.07;75.29;101284.77;105634;1293;59075;-53
2024/01/27 01:42:12;;;;;;;;;;;;;;;5.09;74.63;101279.01;105647;1298;59761;-53
2024/01/27 01:44:58;;;;;;;;;;;;;;;5.09;74.72;101275.09;105617;1297;74528;-55
2024/01/27 01:47:44;;;;;;;;;;;;;;;5.07;74.86;101283.08;105590;1293;67955;-55
2024/01/27 01:50:30;;;;;;;;;;;;;;;5.07;74.32;101283.60;105597;1295;72980;-55
2024/01/27 01:53:16;;;;;;;;;;;;;;;5.07;75.01;101284.63;105336;1294;219839;-54
2024/01/27 01:56:02;;;;;;;;;;;;;;;5.05;75.05;101288.86;105368;1293;341505;-55
2024/01/27 01:58:48;;;;;;;;;;;;;;;5.04;74.56;101285.75;105646;1298;73523;-55
2024/01/27 02:01:34;;;;;;;;;;;;;;;5.05;74.76;101290.55;105607;1293;68410;-55
2024/01/27 02:04:20;;;;;;;;;;;;;;;5.04;74.57;101292.76;105589;1298;72384;-54
2024/01/27 02:07:06;;;;;;;;;;;;;;;5.03;75.19;101292.07;105593;1296;58945;-54
2024/01/27 02:09:52;;;;;;;;;;;;;;;5.02;74.49;101290.00;105622;1297;59058;-54
2024/01/27 02:12:38;;;;;;;;;;;;;;;5.02;74.90;101285.89;105735;1294;74206;-55
2024/01/27 02:15:24;;;;;;;;;;;;;;;5.01;74.41;101281.44;105722;1296;67405;-55
2024/01/27 02:18:10;;;;;;;;;;;;;;;5.02;74.45;101282.83;105442;1296;209094;-55
2024/01/27 02:20:56;;;;;;;;;;;;;;;5.00;74.55;101281.41;105612;1294;59399;-56
2024/01/27 02:23:42;;;;;;;;;;;;;;;4.99;74.60;101282.77;105614;1298;59770;-56
2024/01/27 02:26:28;;;;;;;;;;;;;;;4.97;74.62;101280.69;105600;1293;73442;-55
2024/01/27 02:29:14;;;;;;;;;;;;;;;4.95;73.72;101280.48;105696;1292;67431;-55
2024/01/27 02:31:59;;;;;;;;;;;;;;;4.97;73.46;101276.07;105617;1293;72795;-56
2024/01/27 02:34:45;;;;;;;;;;;;;;;4.97;73.76;101282.23;105627;1296;59421;-55
2024/01/27 02:37:31;;;;;;;;;;;;;;;4.95;73.22;101276.73;105602;1293;59338;-54
2024/01/27 02:40:17;;;;;;;;;;;;;;;4.96;73.34;101276.91;105636;1295;73184;-55
2024/01/27 02:43:03;;;;;;;;;;;;;;;4.96;73.39;101275.20;105665;1294;67392;-55
2024/01/27 02:45:49;;;;;;;;;;;;;;;4.95;73.56;101273.47;105638;1296;70387;-55
2024/01/27 02:48:35;;;;;;;;;;;;;;;4.93;73.22;101284.21;105642;1295;58914;-54
2024/01/27 02:51:21;;;;;;;;;;;;;;;4.94;73.24;101280.46;105655;1297;59042;-55
2024/01/27 02:54:06;;;;;;;;;;;;;;;4.93;73.27;101282.84;105381;1294;277136;-54
2024/01/27 02:56:52;;;;;;;;;;;;;;;4.94;73.00;101286.94;105639;1298;67272;-55
2024/01/27 02:59:38;;;;;;;;;;;;;;;4.94;72.92;101285.75;105575;1298;71450;-53
2024/01/27 03:02:24;;;;;;;;;;;;;;;4.94;73.08;101288.15;105620;1297;59451;-55
2024/01/27 03:05:13;;;;;;;;;;;;;;;4.93;72.85;101291.04;105607;1296;60450;-56
2024/01/27 03:07:59;;;;;;;;;;;;;;;4.94;73.12;101291.05;105604;1295;73975;-54
2024/01/27 03:10:45;;;;;;;;;;;;;;;4.93;72.86;101285.05;105671;1293;68531;-55
2024/01/27 03:13:31;;;;;;;;;;;;;;;4.92;72.72;101285.21;105611;1294;73001;-55
2024/01/27 03:16:18;;;;;;;;;;;;;;;4.94;72.79;101283.52;105656;1296;59153;-55
2024/01/27 03:19:04;;;;;;;;;;;;;;;4.94;73.17;101285.75;105614;1296;59243;-54
2024/01/27 03:21:50;;;;;;;;;;;;;;;4.95;72.51;101281.16;105613;1294;75109;-54
2024/01/27 03:24:36;;;;;;;;;;;;;;;4.95;72.31;101281.15;105606;1295;68506;-55
2024/01/27 03:27:21;;;;;;;;;;;;;;;4.95;72.13;101278.44;105583;1293;71462;-54
2024/01/27 03:30:08;;;;;;;;;;;;;;;4.96;71.98;101284.42;105627;1294;59277;-54
2024/01/27 03:32:54;;;;;;;;;;;;;;;4.96;72.12;101285.96;105577;1296;59044;-55
2024/01/27 03:35:41;;;;;;;;;;;;;;;4.95;72.06;101281.16;105606;1295;73431;-54
2024/01/27 03:38:26;;;;;;;;;;;;;;;4.95;72.23;101286.46;105642;1293;68809;-54
2024/01/27 03:41:12;;;;;;;;;;;;;;;4.96;72.31;101286.48;105630;1293;71129;-55
2024/01/27 03:43:58;;;;;;;;;;;;;;;4.94;72.33;101284.39;105537;1298;59387;-54
2024/01/27 03:46:44;;;;;;;;;;;;;;;4.94;71.91;101280.65;105636;1297;59887;-55
2024/01/27 03:49:30;;;;;;;;;;;;;;;4.94;71.68;101284.73;105658;1293;73465;-54
2024/01/27 03:52:16;;;;;;;;;;;;;;;4.94;71.84;101285.59;105700;1293;66580;-54
2024/01/27 03:55:02;;;;;;;;;;;;;;;4.94;71.88;101282.34;105601;1294;71712;-54
2024/01/27 03:57:48;;;;;;;;;;;;;;;4.96;71.85;101277.41;105613;1295;59207;-54
2024/01/27 04:00:34;;;;;;;;;;;;;;;4.95;71.47;101275.35;105551;1294;59121;-55
2024/01/27 04:03:20;;;;;;;;;;;;;;;4.95;71.98;101289.87;105598;1293;73666;-54
2024/01/27 04:06:06;;;;;;;;;;;;;;;4.95;71.68;101288.16;105642;1292;68355;-55
2024/01/27 04:08:52;;;;;;;;;;;;;;;4.97;71.72;101284.27;105610;1294;72414;-54
2024/01/27 04:11:38;;;;;;;;;;;;;;;4.97;71.79;101289.91;105607;1296;59093;-54
2024/01/27 04:14:24;;;;;;;;;;;;;;;4.95;71.86;101294.32;105556;1293;60018;-53
2024/01/27 04:17:10;;;;;;;;;;;;;;;4.95;72.13;101300.13;105633;1294;74016;-54
2024/01/27 04:19:56;;;;;;;;;;;;;;;4.96;71.95;101306.64;105651;1293;67589;-54
2024/01/27 04:22:42;;;;;;;;;;;;;;;4.96;71.90;101314.67;105654;1293;70328;-53
2024/01/27 04:25:28;;;;;;;;;;;;;;;4.96;71.52;101312.97;105643;1293;59397;-54
2024/01/27 04:28:14;;;;;;;;;;;;;;;4.98;71.68;101316.74;105703;1293;59072;-55
2024/01/27 04:31:00;;;;;;;;;;;;;;;4.98;71.36;101328.37;105653;1293;73913;-51
2024/01/27 04:33:46;;;;;;;;;;;;;;;4.99;71.28;101321.39;105588;1296;67186;-55
2024/01/27 04:36:32;;;;;;;;;;;;;;;4.97;71.69;101313.84;105617;1293;71420;-54
2024/01/27 04:39:17;;;;;;;;;;;;;;;4.96;71.80;101306.63;105696;1293;59669;-53
2024/01/27 04:42:06;;;;;;;;;;;;;;;4.96;71.85;101308.00;105558;1295;60184;-55
2024/01/27 04:44:53;;;;;;;;;;;;;;;4.95;72.19;101301.50;105591;1298;74234;-53
2024/01/27 04:47:39;;;;;;;;;;;;;;;4.96;71.81;101303.05;105610;1293;68643;-54
2024/01/27 04:50:25;;;;;;;;;;;;;;;4.93;71.92;101303.01;105591;1293;72421;-55
2024/01/27 04:53:10;;;;;;;;;;;;;;;4.91;72.06;101298.86;105595;1296;59286;-54
2024/01/27 04:55:56;;;;;;;;;;;;;;;4.91;71.65;101309.27;105655;1293;59842;-55
2024/01/27 04:58:42;;;;;;;;;;;;;;;4.91;71.82;101316.12;105694;1295;74520;-54
2024/01/27 05:01:28;;;;;;;;;;;;;;;4.91;71.93;101320.05;105605;1294;67223;-55
2024/01/27 05:04:14;;;;;;;;;;;;;;;4.91;71.93;101330.98;105581;1293;71420;-54
2024/01/27 05:07:00;;;;;;;;;;;;;;;4.92;71.78;101320.58;105594;1292;59589;-55
2024/01/27 05:09:46;;;;;;;;;;;;;;;4.94;71.65;101333.08;105585;1294;60306;-53
2024/01/27 05:12:31;;;;;;;;;;;;;;;4.95;71.55;101330.36;105593;1296;72709;-53
2024/01/27 05:15:17;;;;;;;;;;;;;;;4.95;71.82;101344.21;105634;1293;67173;-54
2024/01/27 05:18:04;;;;;;;;;;;;;;;4.95;71.80;101344.02;105596;1294;72558;-55
2024/01/27 05:20:50;;;;;;;;;;;;;;;4.94;71.82;101344.17;105627;1293;59099;-55
2024/01/27 05:23:35;;;;;;;;;;;;;;;4.91;72.11;101345.84;105617;1292;59098;-55
2024/01/27 05:26:22;;;;;;;;;;;;;;;4.88;72.49;101351.93;105641;1296;74133;-54
2024/01/27 05:29:08;;;;;;;;;;;;;;;4.87;72.54;101358.56;105598;1293;67227;-52
2024/01/27 05:31:54;;;;;;;;;;;;;;;4.85;72.50;101363.15;105680;1293;72613;-54
2024/01/27 05:34:40;;;;;;;;;;;;;;;4.84;72.71;101363.13;105639;1293;59069;-54
2024/01/27 05:37:26;;;;;;;;;;;;;;;4.82;72.88;101366.84;105647;1296;60965;-53
2024/01/27 05:40:12;;;;;;;;;;;;;;;4.82;72.94;101369.92;105637;1293;75098;-54
2024/01/27 05:42:58;;;;;;;;;;;;;;;4.79;73.07;101371.73;105690;1293;68324;-55
2024/01/27 05:45:45;;;;;;;;;;;;;;;4.80;73.07;101370.71;105599;1293;72558;-53
2024/01/27 05:48:30;;;;;;;;;;;;;;;4.77;73.29;101375.79;105589;1296;59079;-54
2024/01/27 05:51:16;;;;;;;;;;;;;;;4.71;73.79;101388.30;105620;1295;59928;-55
2024/01/27 05:54:02;;;;;;;;;;;;;;;4.65;74.01;101388.39;105656;1293;74966;-55
2024/01/27 05:56:48;;;;;;;;;;;;;;;4.61;74.41;101393.27;105631;1293;68608;-55
2024/01/27 05:59:34;;;;;;;;;;;;;;;4.57;74.76;101400.17;105528;1293;71429;-55
2024/01/27 06:02:20;;;;;;;;;;;;;;;4.52;75.31;101402.13;105668;1293;59199;-55
2024/01/27 06:05:08;;;;;;;;;;;;;;;4.46;75.53;101404.73;105652;1293;58987;-55
2024/01/27 06:07:54;;;;;;;;;;;;;;;4.40;75.99;101415.02;105579;1295;73414;-54
2024/01/27 06:10:40;;;;;;;;;;;;;;;4.38;76.04;101416.48;105649;1293;67425;-54
2024/01/27 06:13:26;;;;;;;;;;;;;;;4.35;76.02;101419.50;105710;1293;72377;-52
2024/01/27 06:16:12;;;;;;;;;;;;;;;4.34;76.18;101424.42;105567;1293;59216;-55
2024/01/27 06:18:58;;;;;;;;;;;;;;;4.32;76.29;101436.83;105595;1293;60387;-55
2024/01/27 06:21:44;;;;;;;;;;;;;;;4.30;76.54;101437.48;105589;1295;72936;-55
2024/01/27 06:24:30;;;;;;;;;;;;;;;4.29;76.66;101440.70;105606;1293;67535;-55
2024/01/27 06:27:16;;;;;;;;;;;;;;;4.28;76.65;101445.11;105561;1298;71273;-55
2024/01/27 06:30:02;;;;;;;;;;;;;;;4.28;76.89;101450.39;105664;1293;58789;-55
2024/01/27 06:32:48;;;;;;;;;;;;;;;4.26;76.99;101448.48;105698;1294;59768;-55
2024/01/27 06:35:33;;;;;;;;;;;;;;;4.28;77.11;101454.66;105647;1293;74614;-54
2024/01/27 06:38:19;;;;;;;;;;;;;;;4.28;77.24;101462.36;105651;1294;67004;-54
2024/01/27 06:41:05;;;;;;;;;;;;;;;4.28;77.42;101466.09;105577;1295;71299;-55
2024/01/27 06:43:51;;;;;;;;;;;;;;;4.29;77.27;101470.39;105573;1293;59355;-54
2024/01/27 06:46:37;;;;;;;;;;;;;;;4.32;77.32;101477.98;105704;1293;59741;-55
2024/01/27 06:49:23;;;;;;;;;;;;;;;4.34;77.27;101484.86;105660;1293;73228;-54
2024/01/27 06:52:09;;;;;;;;;;;;;;;4.39;77.23;101482.21;105573;1293;68075;-55
2024/01/27 06:54:55;;;;;;;;;;;;;;;4.40;77.21;101479.52;105553;1294;73158;-54
2024/01/27 06:57:41;;;;;;;;;;;;;;;4.43;77.17;101493.93;105633;1294;58998;-55
2024/01/27 07:00:27;;;;;;;;;;;;;;;4.46;77.08;101499.80;105650;1293;59774;-54
2024/01/27 07:03:13;;;;;;;;;;;;;;;4.48;77.16;101504.80;105578;1294;74467;-55
2024/01/27 07:06:00;;;;;;;;;;;;;;;4.48;77.22;101501.58;105588;1293;67503;-54
2024/01/27 07:08:46;;;;;;;;;;;;;;;4.49;77.26;101498.35;105667;1293;71352;-55
2024/01/27 07:11:33;;;;;;;;;;;;;;;4.50;76.99;101490.35;105588;1293;58996;-53
2024/01/27 07:14:19;;;;;;;;;;;;;;;4.53;77.02;101487.50;105657;1293;59268;-55
2024/01/27 07:17:05;;;;;;;;;;;;;;;4.54;77.09;101483.09;105689;1294;74599;-54
2024/01/27 07:19:51;;;;;;;;;;;;;;;4.55;76.85;101488.41;105626;1293;68536;-53
2024/01/27 07:22:37;;;;;;;;;;;;;;;4.58;76.83;101489.66;105588;1296;71791;-55
2024/01/27 07:25:23;;;;;;;;;;;;;;;4.61;76.78;101496.91;105699;1294;59401;-55
2024/01/27 07:28:08;;;;;;;;;;;;;;;4.63;76.71;101488.25;105608;1296;60657;-56
2024/01/27 07:30:54;;;;;;;;;;;;;;;4.66;76.34;101495.32;105418;1295;72885;-55
2024/01/27 07:33:40;;;;;;;;;;;;;;;4.72;75.87;101496.95;105519;1293;67144;-55
2024/01/27 07:36:30;;;;;;;;;;;;;;;4.75;75.85;101500.95;105498;1293;71897;-55
2024/01/27 07:39:16;;;;;;;;;;;;;;;4.77;75.86;101501.51;105583;1294;59435;-55
2024/01/27 07:42:02;;;;;;;;;;;;;;;4.79;76.02;101500.02;105614;1293;59182;-55
2024/01/27 07:44:49;;;;;;;;;;;;;;;4.80;75.88;101513.70;105595;1296;75252;-55
2024/01/27 07:47:35;;;;;;;;;;;;;;;4.82;75.99;101524.49;105641;1293;67378;-55
2024/01/27 07:50:22;;;;;;;;;;;;;;;4.84;76.02;101534.29;105589;1295;71456;-55
2024/01/27 07:53:08;;;;;;;;;;;;;;;4.85;76.09;101542.33;105527;1299;59439;-55
2024/01/27 07:55:56;;;;;;;;;;;;;;;4.85;76.13;101545.42;105499;1296;59718;-56
2024/01/27 07:58:41;;;;;;;;;;;;;;;4.87;75.55;101554.00;105561;1298;72871;-55
2024/01/27 08:01:27;;;;;;;;;;;;;;;4.89;75.89;101551.31;105554;1294;68153;-56
2024/01/27 08:04:15;;;;;;;;;;;;;;;4.92;75.74;101556.17;105537;1294;71219;-55
2024/01/27 08:07:06;;;;;;;;;;;;;;;4.95;75.68;101563.08;105556;1292;59361;-55
2024/01/27 08:09:52;;;;;;;;;;;;;;;4.96;75.54;101565.83;105478;1294;59985;-55
2024/01/27 08:12:38;;;;;;;;;;;;;;;4.97;75.01;101565.67;105565;1297;74549;-55
2024/01/27 08:15:24;;;;;;;;;;;;;;;5.00;75.36;101576.50;105593;1293;67355;-55
2024/01/27 08:18:09;;;;;;;;;;;;;;;5.02;75.32;101581.84;32397;1294;20001737;-55
2024/01/27 08:20:55;;;;;;;;;;;;;;;5.03;75.41;101586.13;105514;1298;74885;-56
2024/01/27 08:23:41;;;;;;;;;;;;;;;5.06;75.24;101583.96;105640;1293;67825;-51
2024/01/27 08:26:27;;;;;;;;;;;;;;;5.10;74.83;101587.66;105495;1298;71793;-56
2024/01/27 08:29:13;;;;;;;;;;;;;;;5.14;74.87;101596.64;105494;1293;59023;-53
2024/01/27 08:31:59;;;;;;;;;;;;;;;5.22;75.25;101607.20;105533;1293;59248;-56
2024/01/27 08:35:18;;;;;;;;;;;;;;;;;;;;;
2024/01/27 08:38:05;;;;;;;;;;;;;;;5.34;74.81;101624.23;105024;1300;69139;-56
2024/01/27 08:40:52;;;;;;;;;;;;;;;5.38;74.35;101629.95;104936;1303;72444;-56
2024/01/27 08:43:38;;;;;;;;;;;;;;;5.38;74.74;101635.06;105000;1300;59230;-56
2024/01/27 08:46:24;;;;;;;;;;;;;;;5.38;74.33;101635.09;105046;1300;60497;-57
2024/01/27 08:49:10;;;;;;;;;;;;;;;5.38;74.29;101637.98;105014;1305;74491;-54
2024/01/27 08:51:56;;;;;;;;;;;;;;;5.37;74.31;101641.89;104836;1300;208125;-55
2024/01/27 08:54:42;;;;;;;;;;;;;;;5.35;74.45;101652.96;104980;1300;72912;-55
2024/01/27 08:57:28;;;;;;;;;;;;;;;5.35;74.56;101660.66;104957;1300;59109;-55
2024/01/27 09:00:15;;;;;;;;;;;;;;;5.36;74.13;101659.66;104952;1303;59278;-56
2024/01/27 09:03:02;;;;;;;;;;;;;;;5.34;74.26;101667.48;104948;1301;73519;-56
2024/01/27 09:05:49;;;;;;;;;;;;;;;5.33;74.33;101672.92;104961;1302;67949;-55
2024/01/27 09:08:36;;;;;;;;;;;;;;;5.29;73.87;101677.63;105013;1300;72619;-56
2024/01/27 09:11:23;;;;;;;;;;;;;;;5.26;73.76;101677.55;105005;1300;59201;-53
2024/01/27 09:14:09;;;;;;;;;;;;;;;5.25;74.16;101681.30;105080;1293;58902;-52
2024/01/27 09:16:55;;;;;;;;;;;;;;;5.28;73.89;101683.58;105638;1293;73290;-53
2024/01/27 09:19:42;;;;;;;;;;;;;;;5.26;74.06;101703.52;105650;1293;69204;-54
2024/01/27 09:22:28;;;;;;;;;;;;;;;5.28;73.98;101704.78;105658;1292;71173;-54
2024/01/27 09:25:13;;;;;;;;;;;;;;;5.38;74.28;101711.00;105738;1294;62051;-51
2024/01/27 09:28:03;;;;;;;;;;;;;;;5.46;74.11;101726.77;105584;1293;59450;-52
2024/01/27 09:30:49;;;;;;;;;;;;;;;5.46;74.01;101735.80;105740;1292;73412;-53
2024/01/27 09:33:35;;;;;;;;;;;;;;;5.52;74.34;101744.16;105562;1293;67504;-55
2024/01/27 09:36:21;;;;;;;;;;;;;;;5.59;74.16;101754.59;105577;1293;71475;-54
2024/01/27 09:39:08;;;;;;;;;;;;;;;5.68;74.22;101754.63;105603;1293;59368;-54
2024/01/27 09:41:54;;;;;;;;;;;;;;;5.75;74.24;101759.35;105614;1293;59832;-54
2024/01/27 09:44:42;;;;;;;;;;;;;;;5.83;73.80;101765.86;105558;1293;73543;-57
2024/01/27 09:47:29;;;;;;;;;;;;;;;5.87;73.98;101773.48;105612;1293;67761;-56
2024/01/27 09:50:17;;;;;;;;;;;;;;;5.95;73.76;101783.45;105527;1293;72377;-56
2024/01/27 09:53:07;;;;;;;;;;;;;;;5.97;73.38;101798.22;105653;1293;59307;-55
2024/01/27 09:55:56;;;;;;;;;;;;;;;6.04;73.35;101789.46;105631;1293;59499;-55
2024/01/27 09:58:42;;;;;;;;;;;;;;;6.23;73.59;101802.52;105584;1293;73359;-56
2024/01/27 10:01:29;;;;;;;;;;;;;;;6.42;72.99;101804.95;105601;1293;67501;-56
2024/01/27 10:04:15;;;;;;;;;;;;;;;6.60;73.84;101810.09;105566;1296;71246;-56
2024/01/27 10:07:01;;;;;;;;;;;;;;;6.80;73.16;101814.04;105600;1293;59087;-56
2024/01/27 10:09:49;;;;;;;;;;;;;;;6.67;72.36;101811.95;105621;1293;59324;-55
2024/01/27 10:12:39;;;;;;;;;;;;;;;6.68;72.62;101819.15;105572;1293;73307;-56
2024/01/27 10:15:27;;;;;;;;;;;;;;;6.68;72.74;101813.67;105655;1293;67558;-56
2024/01/27 10:18:15;;;;;;;;;;;;;;;6.74;73.05;101818.59;105595;1293;71224;-56
2024/01/27 10:21:11;;;;;;;;;;;;;;;6.83;72.71;101827.30;105612;1296;59000;-56
2024/01/27 10:23:57;;;;;;;;;;;;;;;6.86;72.51;101827.54;105630;1293;60720;-56
2024/01/27 10:26:43;;;;;;;;;;;;;;;7.17;72.93;101830.31;105601;1293;74503;-55
2024/01/27 10:29:30;;;;;;;;;;;;;;;7.46;71.80;101829.59;105686;1293;67113;-56
2024/01/27 10:32:15;;;;;;;;;;;;;;;7.44;71.94;101831.80;105392;1293;265286;-55
2024/01/27 10:35:05;;;;;;;;;;;;;;;7.45;72.03;101833.02;105606;1293;59029;-56
2024/01/27 10:37:51;;;;;;;;;;;;;;;7.38;71.67;101837.52;105614;1294;58770;-56
2024/01/27 10:40:38;;;;;;;;;;;;;;;7.28;71.55;101837.36;105624;1293;75078;-56
2024/01/27 10:43:24;;;;;;;;;;;;;;;7.38;72.26;101838.20;105610;1296;68582;-56
2024/01/27 10:46:13;;;;;;;;;;;;;;;7.95;72.64;101842.67;105648;1293;71373;-56
2024/01/27 10:48:59;;;;;;;;;;;;;;;8.07;70.70;101845.08;105608;1294;59424;-55
2024/01/27 10:51:46;;;;;;;;;;;;;;;7.88;70.07;101846.19;105589;1293;60015;-56
2024/01/27 10:54:33;;;;;;;;;;;;;;;7.83;71.09;101856.58;105640;1294;72439;-57
2024/01/27 10:57:20;;;;;;;;;;;;;;;7.87;70.90;101854.41;105632;1294;67179;-56
2024/01/27 11:00:08;;;;;;;;;;;;;;;8.10;70.69;101860.73;105695;1293;72545;-56
2024/01/27 11:02:57;;;;;;;;;;;;;;;8.38;70.33;101859.93;105706;1293;59442;-56
2024/01/27 11:05:46;;;;;;;;;;;;;;;8.51;70.05;101857.88;105590;1293;59383;-57
2024/01/27 11:08:33;;;;;;;;;;;;;;;8.64;69.11;101861.64;105631;1293;73288;-56
2024/01/27 11:11:22;;;;;;;;;;;;;;;9.00;69.43;101862.71;105627;1296;67260;-56
2024/01/27 11:14:09;;;;;;;;;;;;;;;9.10;68.26;101870.21;105615;1293;71335;-57
2024/01/27 11:16:59;;;;;;;;;;;;;;;9.16;68.54;101874.75;105616;1298;59299;-56
2024/01/27 11:19:46;;;;;;;;;;;;;;;9.73;69.12;101881.42;105600;1293;58931;-56
2024/01/27 11:22:32;;;;;;;;;;;;;;;10.16;69.08;101891.20;105527;1293;74885;-57
2024/01/27 11:25:19;;;;;;;;;;;;;;;10.33;66.21;101887.35;105696;1292;68185;-57
2024/01/27 11:28:15;;;;;;;;;;;;;;;10.27;65.05;101898.86;105589;1293;72435;-57
2024/01/27 11:31:06;;;;;;;;;;;;;;;10.35;66.37;101910.79;105616;1295;59394;-56
2024/01/27 11:33:53;;;;;;;;;;;;;;;10.96;65.48;101911.89;105621;1293;58928;-57
2024/01/27 11:36:41;;;;;;;;;;;;;;;11.32;65.44;101909.91;105648;1293;75656;-57
2024/01/27 11:39:28;;;;;;;;;;;;;;;11.64;65.65;101920.97;105687;1293;68295;-57
2024/01/27 11:42:17;;;;;;;;;;;;;;;11.91;64.10;101926.01;105622;1293;72550;-57
2024/01/27 11:45:04;;;;;;;;;;;;;;;12.09;63.31;101930.98;105619;1294;60172;-56
2024/01/27 11:47:50;;;;;;;;;;;;;;;12.36;63.58;101933.55;105649;1293;59361;-57
2024/01/27 11:50:39;;;;;;;;;;;;;;;12.56;63.73;101935.54;105580;1298;74340;-56
2024/01/27 11:53:25;;;;;;;;;;;;;;;13.00;63.41;101944.19;105633;1293;67241;-57
2024/01/27 11:56:32;;;;;;;;;;;;;;;13.36;60.59;101949.90;47238;1293;20072557;-57
2024/01/27 11:59:18;;;;;;;;;;;;;;;13.19;60.87;101952.73;105710;1293;64197;-57
2024/01/27 12:02:04;;;;;;;;;;;;;;;13.36;61.85;101952.48;105697;1292;59325;-57
2024/01/27 12:04:52;;;;;;;;;;;;;;;13.87;63.79;101963.19;105704;1292;60486;-57
2024/01/27 12:07:38;;;;;;;;;;;;;;;14.05;59.62;101966.84;105622;1292;74728;-56
2024/01/27 12:10:24;;;;;;;;;;;;;;;13.07;60.08;101970.30;105800;1292;69686;-57
2024/01/27 12:13:14;;;;;;;;;;;;;;;13.01;60.52;101981.04;105666;1292;72268;-56
2024/01/27 12:16:05;;;;;;;;;;;;;;;13.23;60.06;101986.69;105597;1294;59084;-57
2024/01/27 12:18:56;;;;;;;;;;;;;;;13.57;61.24;101988.90;105692;1292;59062;-57
2024/01/27 12:21:49;;;;;;;;;;;;;;;13.80;59.70;101994.45;105645;1293;75184;-57
2024/01/27 12:24:37;;;;;;;;;;;;;;;14.04;59.26;101998.59;105706;1293;67981;-57
2024/01/27 12:27:23;;;;;;;;;;;;;;;13.92;58.65;102004.59;105747;1293;71333;-57
2024/01/27 12:30:10;;;;;;;;;;;;;;;14.19;59.56;102008.51;105718;1293;59009;-57
2024/01/27 12:32:56;;;;;;;;;;;;;;;14.66;59.63;102014.32;105693;1292;60068;-57
2024/01/27 12:35:42;;;;;;;;;;;;;;;14.15;55.50;102023.64;105496;1293;73554;-57
2024/01/27 12:38:27;;;;;;;;;;;;;;;13.69;57.02;102029.54;105716;1293;67392;-56
2024/01/27 12:41:17;;;;;;;;;;;;;;;14.23;57.44;102030.84;105717;1294;72051;-57
2024/01/27 12:44:03;;;;;;;;;;;;;;;14.26;55.05;102030.13;105697;1292;59015;-56
2024/01/27 12:46:49;;;;;;;;;;;;;;;13.94;55.64;102033.87;105686;1292;59823;-57
2024/01/27 12:49:38;;;;;;;;;;;;;;;13.91;55.24;102034.08;105701;1293;73204;-57
2024/01/27 12:52:27;;;;;;;;;;;;;;;13.64;54.80;102033.73;105686;1296;68133;-56
2024/01/27 12:55:13;;;;;;;;;;;;;;;13.33;54.73;102044.30;105715;1295;71381;-57
2024/01/27 12:57:59;;;;;;;;;;;;;;;13.21;55.20;102051.97;105673;1293;58874;-57
2024/01/27 13:00:45;;;;;;;;;;;;;;;13.16;55.12;102052.49;105628;1293;59505;-57
2024/01/27 13:03:34;;;;;;;;;;;;;;;12.56;54.18;102059.91;105703;1293;74940;-57
2024/01/27 13:06:20;;;;;;;;;;;;;;;12.23;55.44;102063.58;105712;1293;69624;-57
2024/01/27 13:09:10;;;;;;;;;;;;;;;12.55;56.53;102063.89;105681;1292;72018;-57
2024/01/27 13:12:00;;;;;;;;;;;;;;;12.51;55.24;102065.45;105738;1291;59125;-57
2024/01/27 13:14:49;;;;;;;;;;;;;;;12.66;54.57;102063.88;105734;1293;59784;-57
2024/01/27 13:17:37;;;;;;;;;;;;;;;12.51;54.57;102070.64;105725;1293;74156;-57
2024/01/27 13:20:23;;;;;;;;;;;;;;;11.93;53.91;102080.14;105678;1292;68509;-57
2024/01/27 13:23:09;;;;;;;;;;;;;;;11.28;54.93;102079.41;105724;1293;71454;-56
2024/01/27 13:25:55;;;;;;;;;;;;;;;10.99;55.02;102086.69;105642;1292;59328;-57
2024/01/27 13:28:41;;;;;;;;;;;;;;;10.76;55.65;102092.61;105777;1291;58933;-57
2024/01/27 13:31:27;;;;;;;;;;;;;;;10.62;55.70;102097.85;105683;1293;74346;-56
2024/01/27 13:34:13;;;;;;;;;;;;;;;10.70;55.65;102102.73;105739;1292;67306;-57
2024/01/27 13:37:02;;;;;;;;;;;;;;;10.61;55.55;102109.23;105670;1293;72250;-59
2024/01/27 13:39:59;;;;;;;;;;;;;;;;;;;;;
2024/01/27 13:42:48;;;;;;;;;;;;;;;10.25;55.79;102111.70;32360;1293;10002556;-56
2024/01/27 13:45:34;;;;;;;;;;;;;;;10.26;55.79;102122.04;105741;1293;67985;-57
2024/01/27 13:48:20;;;;;;;;;;;;;;;10.42;55.93;102128.21;105765;1293;72401;-57
2024/01/27 13:51:07;;;;;;;;;;;;;;;10.27;56.14;102136.89;105663;1293;59055;-57
2024/01/27 13:53:53;;;;;;;;;;;;;;;10.24;56.25;102137.89;105714;1293;58852;-56
2024/01/27 13:56:39;;;;;;;;;;;;;;;10.04;56.30;102140.23;105519;1293;74576;-56
2024/01/27 13:59:25;;;;;;;;;;;;;;;9.80;56.63;102148.60;105656;1292;69283;-57
2024/01/27 14:02:10;;;;;;;;;;;;;;;9.50;55.99;102152.69;105698;1293;71351;-56
2024/01/27 14:04:56;;;;;;;;;;;;;;;8.94;56.17;102153.98;105673;1296;58980;-56
2024/01/27 14:07:42;;;;;;;;;;;;;;;8.44;56.63;102163.66;105631;1293;59279;-57
2024/01/27 14:10:28;;;;;;;;;;;;;;;8.25;56.96;102166.06;105728;1293;72287;-56
2024/01/27 14:13:14;;;;;;;;;;;;;;;8.13;56.97;102171.52;105710;1291;68088;-57
2024/01/27 14:16:00;;;;;;;;;;;;;;;8.04;57.27;102181.11;105732;1294;71368;-56
2024/01/27 14:18:46;;;;;;;;;;;;;;;7.76;57.35;102183.66;105757;1297;59045;-56